Terminal Aerodrome Forecast
Issued by NWS Paducah, KY

Home | Current Version | Previous Version | Text Only | Print | Product List | Glossary On
Versions: 1 2 3 4 5 6 7 8 9 10 11 12 13 14 15 16 17 18 19
000
FTUS43 KPAH 232120 AAC
TAFPAH
TAF AMD
KPAH 232120Z 2321/2418 VRB05KT P6SM -SHRA VCTS SCT010CB BKN025
      TEMPO 2321/2324 2SM TSRA BR BKN010CB
     FM240000 12004KT P6SM VCSH BKN035
     FM240500 35003KT 6SM BR SCT008 OVC030
     FM240800 36004KT 5SM BR OVC008
     FM241000 34004KT 3SM BR OVC003
     FM241300 34010KT P6SM OVC008=

USA.gov is the U.S. government's official web portal to all federal, state and local government web resources and services.